• Join FlightAware (Why Join?)
  • Login
  • US Flag 
09:21AM EDT


 

Airport Tracker/Info


-or-


 

Live Flight TrackerFlight Track Log ✈ ASQ5389 ✈ 17-Apr-2013 ✈ KRDU - KMEM

Flight Track Log - Related Links

Times and Time Zones

All times are in EDT time to prevent confusion due to time zone crossing. See the ASQ5389 flight status page for this flight to view local times or setup timezone preferences in your user account.

Time Position Orientation Groundspeed Altitude Reporting Facility
EDT Latitude Longitude Course Direction KTS MPH feet Rate Location/Type
12:04PM 35.8403 -78.8589 234° Southwest 195 224 3,500  Level Washington Center
12:05PM 35.8400 -78.9433 270° West 231 266 6,200 2,100 Climbing Washington Center
12:06PM 35.8356 -79.0253 266° West 273 314 8,000 2,220 Climbing Washington Center
12:07PM 35.8367 -79.1278 271° West 291 335 10,600 1,800 Climbing Washington Center
12:08PM 35.8361 -79.2225 270° West 298 343 11,700 1,500 Climbing Washington Center
12:09PM 35.8319 -79.3506 268° West 335 386 13,700 1,740 Climbing Washington Center
12:11PM 35.8081 -79.5756 263° West 357 411 17,100 1,380 Climbing Atlanta Center
12:12PM 35.7875 -79.6972 258° West 334 384 18,000 900 Climbing Atlanta Center
12:13PM 35.7686 -79.8133 259° West 340 391 19,000 1,080 Climbing Atlanta Center
12:14PM 35.7478 -79.9372 258° West 357 411 20,200 1,140 Climbing Atlanta Center
12:15PM 35.7264 -80.0456 256° West 357 411 21,300 1,020 Climbing Atlanta Center
12:16PM 35.7072 -80.1694 259° West 362 417 22,300 900 Climbing Atlanta Center
12:17PM 35.6861 -80.2956 258° West 368 423 23,200 840 Climbing Atlanta Center
12:18PM 35.6711 -80.4217 262° West 380 437 24,000 360 Climbing Atlanta Center
12:19PM 35.6542 -80.5553 261° West 388 447 24,000  Level Atlanta Center
12:20PM 35.6353 -80.7042 261° West 396 456 24,000 420 Level Atlanta Center
12:21PM 35.6161 -80.8431 260° West 413 475 24,900 1,200 Climbing Atlanta Center
12:22PM 35.5986 -80.9714 261° West 402 463 26,500 1,200 Climbing Atlanta Center
12:23PM 35.5808 -81.0944 260° West 381 438 27,300 720 Climbing Atlanta Center
12:24PM 35.5647 -81.2075 260° West 376 433 28,000 300 Climbing Atlanta Center
12:25PM 35.5447 -81.3486 260° West 391 450 28,000  Level Atlanta Center
12:26PM 35.5308 -81.4792 263° West 406 467 28,000  Level Atlanta Center
12:27PM 35.5106 -81.6125 259° West 406 467 28,000  Level Atlanta Center
12:28PM 35.4925 -81.7558 261° West 406 467 28,000  Level Atlanta Center
12:29PM 35.4742 -81.8889 260° West 400 460 28,000  Level Atlanta Center
12:30PM 35.4556 -82.0194 260° West 394 453 28,000  Level Atlanta Center
12:31PM 35.4367 -82.1475 260° West 394 453 28,000  Level Atlanta Center
12:32PM 35.4178 -82.2753 260° West 389 448 28,000  Level Atlanta Center
12:33PM 35.3986 -82.4056 260° West 389 448 28,000  Level Atlanta Center
12:34PM 35.3794 -82.5308 259° West 389 448 28,000  Level Atlanta Center
12:35PM 35.3639 -82.6356 260° West 384 442 28,000  Level Atlanta Center
12:36PM 35.3425 -82.7758 259° West 376 433 28,000  Level Atlanta Center
12:37PM 35.3289 -82.8753 261° West 371 427 28,000  Level Atlanta Center
12:38PM 35.3053 -83.0258 259° West 371 427 28,000  Level Atlanta Center
12:39PM 35.2853 -83.1508 259° West 376 433 28,000  Level Atlanta Center
12:40PM 35.2672 -83.2656 259° West 368 423 28,000  Level Atlanta Center
12:41PM 35.2514 -83.3850 261° West 373 429 28,000  Level Atlanta Center
12:42PM 35.2311 -83.5072 259° West 373 429 28,000  Level Atlanta Center
12:43PM 35.2106 -83.6319 259° West 373 429 28,000  Level Atlanta Center
12:44PM 35.1922 -83.7517 259° West 373 429 28,000  Level Atlanta Center
12:45PM 35.1736 -83.8736 259° West 373 429 28,000  Level Atlanta Center
12:46PM 35.1528 -83.9931 258° West 373 429 28,000  Level Atlanta Center
12:47PM 35.1342 -84.1175 260° West 373 429 28,000  Level Atlanta Center
12:48PM 35.1131 -84.2394 258° West 373 429 28,000  Level Atlanta Center
12:49PM 35.0919 -84.3611 258° West 373 429 28,000  Level Atlanta Center
12:50PM 35.0728 -84.4853 259° West 373 429 28,000  Level Atlanta Center
12:51PM 35.0536 -84.6097 259° West 373 429 28,000  Level Atlanta Center
12:52PM 35.0297 -84.7464 258° West 373 429 28,000  Level Atlanta Center
12:53PM 35.0081 -84.8731 258° West 373 429 28,000  Level Atlanta Center
12:54PM 34.9864 -84.9969 258° West 373 429 28,000  Level Atlanta Center
12:55PM 34.9667 -85.1236 259° West 373 429 28,000  Level Atlanta Center
12:56PM 34.9508 -85.2500 261° West 378 435 28,000  Level Atlanta Center
12:57PM 34.9369 -85.3792 263° West 383 441 28,000  Level Atlanta Center
12:58PM 34.9231 -85.5081 263° West 383 441 28,000  Level Atlanta Center
12:59PM 34.9089 -85.6344 262° West 389 448 28,000  Level Atlanta Center
01:00PM 34.8967 -85.7658 264° West 389 448 28,000  Level Atlanta Center
01:01PM 34.8844 -85.8794 263° West 389 448 28,000  Level Atlanta Center
01:02PM 34.8722 -86.0083 263° West 389 448 28,000  Level Atlanta Center
01:03PM 34.8594 -86.1397 263° West 389 448 28,000  Level Atlanta Center
01:04PM 34.8447 -86.2711 262° West 389 448 28,000  Level Atlanta Center
01:05PM 34.8297 -86.3997 262° West 389 448 28,000  Level Atlanta Center
01:06PM 34.8147 -86.5308 262° West 389 448 28,000  Level Atlanta Center
01:07PM 34.7931 -86.7156 262° West 393 452 28,000  Level Memphis Center
01:08PM 34.7781 -86.8453 262° West 393 452 28,000  Level Memphis Center
01:09PM 34.7594 -86.9978 262° West 405 466 28,000  Level Memphis Center
01:10PM 34.7481 -87.1144 263° West 405 466 28,000  Level Memphis Center
01:11PM 34.7344 -87.2439 263° West 399 459 28,000  Level Memphis Center
01:12PM 34.7189 -87.3758 262° West 389 448 28,000  Level Memphis Center
01:13PM 34.7053 -87.5050 263° West 394 453 28,000  Level Memphis Center
01:14PM 34.7042 -87.6364 269° West 389 448 28,000 -60 Level Memphis Center
01:15PM 34.6944 -87.7731 265° West 394 453 27,900 -480 Descending Memphis Center
01:16PM 34.6889 -87.9072 267° West 399 459 27,100 -840 Descending Memphis Center
01:17PM 34.6831 -88.0336 267° West 399 459 26,300 -600 Descending Memphis Center
01:18PM 34.6769 -88.1625 267° West 389 448 26,000 -600 Descending Memphis Center
01:19PM 34.6772 -88.2989 270° West 389 448 25,100 -780 Descending Memphis Center
01:20PM 34.6836 -88.4353 273° West 399 459 24,500 -600 Descending Memphis Center
01:21PM 34.6897 -88.5739 273° West 410 472 24,000 -300 Descending Memphis Center
01:22PM 34.6981 -88.7128 274° West 410 472 24,000 -600 Level Memphis Center
01:23PM 34.7019 -88.8489 272° West 410 472 22,900 -1,740 Descending Memphis Center
01:24PM 34.7075 -88.9828 273° West 404 465 20,600 -2,340 Descending Memphis Center
01:25PM 34.7131 -89.1064 273° West 391 450 18,300 -2,160 Descending Memphis Center
01:26PM 34.7164 -89.2278 272° West 373 429 16,300 -1,500 Descending Memphis Center
01:27PM 34.7339 -89.3436 280° West 361 415 15,400 -780 Descending Memphis Center
01:28PM 34.7642 -89.4697 286° West 356 410 14,800 -600 Descending Memphis Center
01:29PM 34.8086 -89.5756 297° West 355 409 14,300 -420 Descending Memphis Center
01:30PM 34.8594 -89.6714 303° West 350 403 14,000 -1,320 Descending Memphis Center
01:31PM 34.9036 -89.7619 301° West 333 383 11,700 -1,620 Descending Memphis Center
01:32PM 34.9394 -89.8328 302° West 309 356 10,800 -1,500 Descending Memphis Center
01:33PM 34.9939 -89.8831 323° Northwest 277 319 8,700 -2,220 Descending Memphis Center
01:34PM 35.0833 -89.8833 360° North 277 319 6,600 -1,920 Descending KMEM
01:35PM 35.1500 -89.8833 360° North 248 285 5,000 -1,440 Descending KMEM
01:36PM 35.2167 -89.8833 360° North 263 303 3,800 -1,200 Descending KMEM
01:37PM 35.2667 -89.8833 360° North 249 287 3,000 -480 Descending KMEM
01:38PM 35.3333 -89.8833 360° North 249 287 3,000  Level KMEM
01:39PM 35.3667 -89.9333 309° West 176 203 3,000  Level KMEM
01:40PM 35.3333 -89.9667 219° Southwest 183 211 3,000  Level KMEM
01:41PM 35.2833 -89.9833 195° South 185 213 3,000  Level KMEM
01:42PM 35.2333 -89.9833 180° South 180 207 3,000  Level KMEM
01:43PM 35.2000 -89.9667 158° South 152 175 3,000 -480 Level KMEM
01:44PM 35.1500 -89.9667 180° South 160 184 2,200 -780 Descending KMEM
01:45PM 35.1000 -89.9667 180° South 153 176 1,500 -720 Descending KMEM
01:46PM 35.0667 -89.9667 180° South 118 136 800 -720 Descending KMEM
01:48PM 35.0424 -89.9767 177° South  Level Estimated
01:55PM 35.0424 -89.9767 177° South  Level Estimated
01:56PM 35.0424 -89.9767 177° South  Level Estimated